createdAt,value
2023-03-04T00:01:00.350Z,100.00
2023-03-04T00:03:30.134Z,100.00
2023-03-04T00:06:01.776Z,100.00
2023-03-04T00:08:31.360Z,100.00
2023-03-04T00:11:01.585Z,100.00
2023-03-04T00:13:31.142Z,100.00
2023-03-04T00:16:00.972Z,100.00
2023-03-04T00:18:30.661Z,100.00
2023-03-04T00:21:02.172Z,100.00
2023-03-04T00:23:31.774Z,100.00
2023-03-04T00:26:01.881Z,100.00
2023-03-04T00:28:31.565Z,100.00
2023-03-04T00:31:01.431Z,100.00
2023-03-04T00:33:31.028Z,100.00
2023-03-04T00:36:02.509Z,100.00
2023-03-04T00:38:32.207Z,100.00
2023-03-04T00:41:02.129Z,100.00
2023-03-04T00:43:32.540Z,100.00
2023-03-04T00:46:02.589Z,100.00
2023-03-04T00:48:33.148Z,100.00
2023-03-04T00:51:05.059Z,100.00
2023-03-04T00:53:34.768Z,100.00
2023-03-04T00:56:04.763Z,100.00
2023-03-04T00:58:34.606Z,100.00
2023-03-04T01:01:04.691Z,100.00
2023-03-04T01:03:34.898Z,100.00
2023-03-04T01:06:06.698Z,100.00
2023-03-04T01:08:36.524Z,100.00
2023-03-04T01:11:06.604Z,100.00
2023-03-04T01:13:36.989Z,100.00
2023-03-04T01:16:07.384Z,100.00
2023-03-04T01:18:37.025Z,100.00
2023-03-04T01:21:08.776Z,100.00
2023-03-04T01:23:38.432Z,100.00
2023-03-04T01:26:08.339Z,100.00
2023-03-04T01:28:37.897Z,100.00
2023-03-04T01:31:09.934Z,100.00
2023-03-04T01:33:39.683Z,100.00
2023-03-04T01:36:11.258Z,100.00
2023-03-04T01:38:41.005Z,100.00
2023-03-04T01:41:11.704Z,100.00
2023-03-04T01:43:41.657Z,100.00
2023-03-04T01:46:13.177Z,100.00
2023-03-04T01:48:43.392Z,100.00
2023-03-04T01:51:16.253Z,100.00
2023-03-04T01:53:47.508Z,100.00
2023-03-04T01:56:21.550Z,100.00
2023-03-04T01:59:05.900Z,100.00
2023-03-04T02:01:36.602Z,100.00
2023-03-04T02:04:09.306Z,100.00
2023-03-04T02:06:41.852Z,100.00
2023-03-04T02:09:12.635Z,100.00
2023-03-04T02:11:42.885Z,100.00
2023-03-04T02:14:13.097Z,100.00
2023-03-04T02:16:43.472Z,100.00
2023-03-04T02:19:15.496Z,100.00
2023-03-04T02:21:46.882Z,100.00
2023-03-04T02:24:18.637Z,100.00
2023-03-04T02:26:50.504Z,100.00
2023-03-04T02:29:20.617Z,100.00
2023-03-04T02:31:52.702Z,100.00
2023-03-04T02:34:24.601Z,100.00
2023-03-04T02:36:57.571Z,100.00
2023-03-04T02:39:29.885Z,100.00
2023-03-04T02:42:02.373Z,100.00
2023-03-04T02:44:34.993Z,100.00
2023-03-04T02:47:05.579Z,100.00
2023-03-04T02:49:35.904Z,100.00
2023-03-04T02:52:07.440Z,100.00
2023-03-04T02:54:37.344Z,100.00
2023-03-04T02:57:10.835Z,100.00
2023-03-04T02:59:43.376Z,100.00
2023-03-04T03:02:18.134Z,100.00
2023-03-04T03:04:48.179Z,100.00
2023-03-04T03:07:21.315Z,100.00
2023-03-04T03:09:51.642Z,100.00
2023-03-04T03:12:23.584Z,100.00
2023-03-04T03:14:53.335Z,100.00
2023-03-04T03:17:24.338Z,100.00
2023-03-04T03:19:54.001Z,100.00
2023-03-04T03:22:23.982Z,100.00
2023-03-04T03:24:54.000Z,100.00
2023-03-04T03:27:25.633Z,100.00
2023-03-04T03:29:55.776Z,100.00
2023-03-04T03:32:26.022Z,100.00
2023-03-04T03:34:55.714Z,100.00
2023-03-04T03:37:25.926Z,100.00
2023-03-04T03:39:55.648Z,100.00
2023-03-04T03:42:28.309Z,100.00
2023-03-04T03:44:57.846Z,100.00
2023-03-04T03:47:27.968Z,100.00
2023-03-04T03:49:57.605Z,100.00
2023-03-04T03:52:27.652Z,100.00
2023-03-04T03:54:57.250Z,100.00
2023-03-04T03:57:28.661Z,100.00
2023-03-04T03:59:58.368Z,100.00
2023-03-04T04:02:28.462Z,100.00
2023-03-04T04:04:58.150Z,100.00
2023-03-04T04:07:28.210Z,100.00
2023-03-04T04:09:58.161Z,100.00
2023-03-04T04:12:29.756Z,100.00
2023-03-04T04:14:59.446Z,100.00
2023-03-04T04:17:29.351Z,100.00
2023-03-04T04:19:58.913Z,100.00
2023-03-04T04:22:29.054Z,100.00
2023-03-04T04:24:58.610Z,100.00
2023-03-04T04:27:30.086Z,100.00
2023-03-04T04:29:59.748Z,100.00
2023-03-04T04:32:29.713Z,100.00
2023-03-04T04:34:59.441Z,100.00
2023-03-04T04:37:29.249Z,100.00
2023-03-04T04:39:58.781Z,100.00
2023-03-04T04:42:30.495Z,100.00
2023-03-04T04:44:59.965Z,100.00
2023-03-04T04:47:30.092Z,100.00
2023-03-04T04:49:59.861Z,100.00
2023-03-04T04:52:29.861Z,100.00
2023-03-04T04:54:59.437Z,100.00
2023-03-04T04:57:30.809Z,100.00
2023-03-04T05:00:00.458Z,100.00
2023-03-04T05:02:30.702Z,100.00
2023-03-04T05:05:00.419Z,100.00
2023-03-04T05:07:32.649Z,100.00
2023-03-04T05:10:02.307Z,100.00
2023-03-04T05:12:33.723Z,100.00
2023-03-04T05:15:03.279Z,100.00
2023-03-04T05:17:33.582Z,100.00
2023-03-04T05:20:04.616Z,100.00
2023-03-04T05:22:34.756Z,100.00
2023-03-04T05:25:04.430Z,100.00
2023-03-04T05:27:36.265Z,100.00
2023-03-04T05:30:06.339Z,100.00
2023-03-04T05:32:36.356Z,100.00
2023-03-04T05:35:06.289Z,100.00
2023-03-04T05:37:36.383Z,100.00
2023-03-04T05:40:09.687Z,100.00
2023-03-04T05:42:41.098Z,100.00
2023-03-04T05:45:11.068Z,100.00
2023-03-04T05:47:41.107Z,100.00
2023-03-04T05:50:11.694Z,100.00
2023-03-04T05:52:42.851Z,100.00
2023-03-04T05:55:13.606Z,100.00
2023-03-04T05:57:45.141Z,100.00
2023-03-04T06:00:15.953Z,100.00
2023-03-04T06:02:46.471Z,100.00
2023-03-04T06:05:17.350Z,100.00
2023-03-04T06:07:47.389Z,100.00
2023-03-04T06:10:19.512Z,100.00
2023-03-04T06:12:50.943Z,100.00
2023-03-04T06:15:20.965Z,100.00
2023-03-04T06:17:51.474Z,100.00
2023-03-04T06:20:21.457Z,100.00
2023-03-04T06:22:51.527Z,100.00
2023-03-04T06:25:21.392Z,100.00
2023-03-04T06:27:54.775Z,100.00
2023-03-04T06:30:25.132Z,100.00
2023-03-04T06:32:55.596Z,100.00
2023-03-04T06:35:25.666Z,100.00
2023-03-04T06:37:55.861Z,100.00
2023-03-04T06:40:25.569Z,100.00
2023-03-04T06:42:57.085Z,100.00
2023-03-04T06:45:26.991Z,99.61
2023-03-04T06:47:57.197Z,99.50
2023-03-04T06:50:27.043Z,99.20
2023-03-04T06:52:58.247Z,99.39
2023-03-04T06:55:28.075Z,98.23
2023-03-04T06:57:59.713Z,97.16
2023-03-04T07:00:30.949Z,96.22
2023-03-04T07:03:01.248Z,94.97
2023-03-04T07:05:30.907Z,95.01
2023-03-04T07:08:00.996Z,94.97
2023-03-04T07:10:30.701Z,94.06
2023-03-04T07:13:02.578Z,93.75
2023-03-04T07:15:32.584Z,93.84
2023-03-04T07:18:03.084Z,93.60
2023-03-04T07:20:32.930Z,93.42
2023-03-04T07:23:03.296Z,92.60
2023-03-04T07:25:33.223Z,92.89
2023-03-04T07:28:05.241Z,92.94
2023-03-04T07:30:34.774Z,92.54
2023-03-04T07:33:05.122Z,91.54
2023-03-04T07:35:35.085Z,91.17
2023-03-04T07:38:05.373Z,91.15
2023-03-04T07:40:35.143Z,91.01
2023-03-04T07:43:07.723Z,90.53
2023-03-04T07:45:38.575Z,89.84
2023-03-04T07:48:09.189Z,89.25
2023-03-04T07:50:39.204Z,89.11
2023-03-04T07:53:09.513Z,88.82
2023-03-04T07:55:39.054Z,87.22
2023-03-04T07:58:11.025Z,87.07
2023-03-04T08:00:41.810Z,86.57
2023-03-04T08:03:13.855Z,82.63
2023-03-04T08:05:43.507Z,74.88
2023-03-04T08:08:14.300Z,73.39
2023-03-04T08:10:45.703Z,74.07
2023-03-04T08:13:18.096Z,73.73
2023-03-04T08:15:47.867Z,71.17
2023-03-04T08:18:18.156Z,66.49
2023-03-04T08:20:51.593Z,64.60
2023-03-04T08:23:22.171Z,62.98
2023-03-04T08:25:52.950Z,61.58
2023-03-04T08:28:24.542Z,59.64
2023-03-04T08:30:56.767Z,56.72
2023-03-04T08:33:26.952Z,56.27
2023-03-04T08:35:56.957Z,55.10
2023-03-04T08:38:27.346Z,55.31
2023-03-04T08:40:58.022Z,55.07
2023-03-04T08:43:30.111Z,54.38
2023-03-04T08:45:59.833Z,55.79
2023-03-04T08:48:30.298Z,56.36
2023-03-04T08:51:00.497Z,55.49
2023-03-04T08:53:30.685Z,55.38
2023-03-04T08:56:02.118Z,55.26
2023-03-04T08:58:35.365Z,53.91
2023-03-04T09:01:05.983Z,54.43
2023-03-04T09:03:36.401Z,53.88
2023-03-04T09:06:06.949Z,53.74
2023-03-04T09:08:37.308Z,54.40
2023-03-04T09:11:07.459Z,54.22
2023-03-04T09:13:39.012Z,54.19
2023-03-04T09:16:11.685Z,53.93
2023-03-04T09:18:42.226Z,47.60
2023-03-04T09:21:12.308Z,46.41
2023-03-04T09:23:43.220Z,45.14
2023-03-04T09:26:17.323Z,45.54
2023-03-04T09:28:51.007Z,46.69
2023-03-04T09:31:22.100Z,46.31
2023-03-04T09:33:52.711Z,46.30
2023-03-04T09:36:22.729Z,45.84
2023-03-04T09:38:53.208Z,46.52
2023-03-04T09:41:26.528Z,45.73
2023-03-04T09:44:01.070Z,46.16
2023-03-04T09:46:33.890Z,46.55
2023-03-04T09:49:07.002Z,47.70
2023-03-04T09:51:43.432Z,48.44
2023-03-04T09:54:18.032Z,49.27
2023-03-04T09:56:47.746Z,48.93
2023-03-04T09:59:25.797Z,49.47
2023-03-04T10:01:56.635Z,49.55
2023-03-04T10:04:32.828Z,49.82
2023-03-04T10:07:02.807Z,50.22
2023-03-04T10:09:43.416Z,49.88
2023-03-04T10:12:16.621Z,50.84
2023-03-04T10:14:51.658Z,50.65
2023-03-04T10:17:23.671Z,51.01
2023-03-04T10:19:56.848Z,50.04
2023-03-04T10:22:30.948Z,50.03
2023-03-04T10:25:03.910Z,47.05
2023-03-04T10:27:34.336Z,43.94
2023-03-04T10:30:08.714Z,43.96
2023-03-04T10:32:38.505Z,42.45
2023-03-04T10:35:13.770Z,43.10
2023-03-04T10:37:49.453Z,43.63
2023-03-04T10:40:23.554Z,44.50
2023-03-04T10:42:54.097Z,44.79
2023-03-04T10:45:27.184Z,46.20
2023-03-04T10:47:57.537Z,47.75
2023-03-04T10:50:28.954Z,45.18
2023-03-04T10:53:02.033Z,45.77
2023-03-04T10:55:49.730Z,45.23
2023-03-04T10:58:21.991Z,44.42
2023-03-04T11:01:02.919Z,44.08
2023-03-04T11:03:33.901Z,42.63
2023-03-04T11:06:10.366Z,42.03
2023-03-04T11:08:41.273Z,42.09
2023-03-04T11:11:35.679Z,39.47
2023-03-04T11:14:18.758Z,36.54
2023-03-04T11:16:57.531Z,37.07
2023-03-04T11:19:31.225Z,38.08
2023-03-04T11:22:02.504Z,37.79
2023-03-04T11:24:34.076Z,38.23
2023-03-04T11:27:08.044Z,38.67
2023-03-04T11:29:40.803Z,39.82
2023-03-04T11:32:16.369Z,38.76
2023-03-04T11:34:52.130Z,40.85
2023-03-04T11:37:24.507Z,39.72
2023-03-04T11:39:56.551Z,40.71
2023-03-04T11:42:33.559Z,41.05
2023-03-04T11:45:04.008Z,40.99
2023-03-04T11:47:46.888Z,38.21
2023-03-04T11:50:31.140Z,36.91
2023-03-04T11:53:18.669Z,36.78
2023-03-04T11:55:53.064Z,35.43
2023-03-04T11:58:53.430Z,37.20
2023-03-04T12:01:25.484Z,37.04
2023-03-04T12:04:23.094Z,36.95
2023-03-04T12:07:02.171Z,36.42
2023-03-04T12:09:37.720Z,36.98
2023-03-04T12:12:25.100Z,36.27
2023-03-04T12:15:01.560Z,36.45
2023-03-04T12:17:55.538Z,36.36
2023-03-04T12:20:32.530Z,35.67
2023-03-04T12:23:09.731Z,36.75
2023-03-04T12:25:42.780Z,35.83
2023-03-04T12:28:28.031Z,36.75
2023-03-04T12:31:05.352Z,36.59
2023-03-04T12:33:46.228Z,37.67
2023-03-04T12:36:21.580Z,38.54
2023-03-04T12:39:00.770Z,37.22
2023-03-04T12:41:36.491Z,37.07
2023-03-04T12:44:17.033Z,38.49
2023-03-04T12:46:54.966Z,39.25
2023-03-04T12:49:35.418Z,39.80
2023-03-04T12:52:11.889Z,39.78
2023-03-04T12:54:42.542Z,39.54
2023-03-04T12:57:14.757Z,39.19
2023-03-04T12:59:49.496Z,39.46
2023-03-04T13:02:39.083Z,39.86
2023-03-04T13:05:17.544Z,41.49
2023-03-04T13:07:56.762Z,40.78
2023-03-04T13:10:27.835Z,41.48
2023-03-04T13:12:59.397Z,41.47
2023-03-04T13:15:31.090Z,41.27
2023-03-04T13:18:01.956Z,40.65
2023-03-04T13:20:39.515Z,40.71
2023-03-04T13:23:27.785Z,38.92
2023-03-04T13:26:16.127Z,38.28
2023-03-04T13:28:47.003Z,37.94
2023-03-04T13:31:26.930Z,37.91
2023-03-04T13:34:02.138Z,37.53
2023-03-04T13:36:34.354Z,38.97
2023-03-04T13:39:23.384Z,39.20
2023-03-04T13:41:53.989Z,38.61
2023-03-04T13:44:51.486Z,37.34
2023-03-04T13:47:23.204Z,38.29
2023-03-04T13:50:16.144Z,38.82
2023-03-04T13:52:47.232Z,39.02
2023-03-04T13:55:39.859Z,39.45
2023-03-04T13:58:23.497Z,39.89
2023-03-04T14:00:55.070Z,39.27
2023-03-04T14:03:28.664Z,39.59
2023-03-04T14:06:21.444Z,39.34
2023-03-04T14:08:54.522Z,38.10
2023-03-04T14:11:29.746Z,38.87
2023-03-04T14:14:06.276Z,37.29
2023-03-04T14:16:40.237Z,38.98
2023-03-04T14:19:17.120Z,38.36
2023-03-04T14:21:48.216Z,40.41
2023-03-04T14:24:20.020Z,40.25
2023-03-04T14:27:04.801Z,42.33
2023-03-04T14:29:34.461Z,41.75
2023-03-04T14:32:06.736Z,40.97
2023-03-04T14:34:39.867Z,42.44
2023-03-04T14:37:22.736Z,43.27
2023-03-04T14:39:56.129Z,45.58
2023-03-04T14:42:41.495Z,46.00
2023-03-04T14:45:16.327Z,44.07
2023-03-04T14:47:48.813Z,44.91
2023-03-04T14:50:20.446Z,45.03
2023-03-04T14:52:52.059Z,46.22
2023-03-04T14:55:26.756Z,44.96
2023-03-04T14:58:08.080Z,47.03
2023-03-04T15:00:41.569Z,48.52
2023-03-04T15:03:25.941Z,47.51
2023-03-04T15:05:58.721Z,45.65
2023-03-04T15:08:29.988Z,44.59
2023-03-04T15:11:01.030Z,44.77
2023-03-04T15:13:45.205Z,43.80
2023-03-04T15:16:17.854Z,42.52
2023-03-04T15:18:58.374Z,43.43
2023-03-04T15:21:34.138Z,43.01
2023-03-04T15:24:06.572Z,40.98
2023-03-04T15:26:39.803Z,40.83
2023-03-04T15:29:16.189Z,41.01
2023-03-04T15:31:48.688Z,40.25
2023-03-04T15:34:21.894Z,37.89
2023-03-04T15:36:52.565Z,39.29
2023-03-04T15:39:23.666Z,39.42
2023-03-04T15:41:53.476Z,39.02
2023-03-04T15:44:26.098Z,39.05
2023-03-04T15:46:55.925Z,40.41
2023-03-04T15:49:26.333Z,39.49
2023-03-04T15:51:59.773Z,39.76
2023-03-04T15:54:30.787Z,40.37
2023-03-04T15:57:00.855Z,40.70
2023-03-04T15:59:32.686Z,40.01
2023-03-04T16:02:02.647Z,40.21
2023-03-04T16:04:32.814Z,40.10
2023-03-04T16:07:02.854Z,39.44
2023-03-04T16:09:33.055Z,39.42
2023-03-04T16:12:02.936Z,39.96
2023-03-04T16:14:34.582Z,39.92
2023-03-04T16:17:04.260Z,39.90
2023-03-04T16:19:34.418Z,40.56
2023-03-04T16:22:04.635Z,39.95
2023-03-04T16:24:35.755Z,40.44
2023-03-04T16:27:06.307Z,40.29
2023-03-04T16:29:37.966Z,40.81
2023-03-04T16:32:07.843Z,40.23
2023-03-04T16:34:38.292Z,39.77
2023-03-04T16:37:09.463Z,40.39
2023-03-04T16:39:41.457Z,41.31
2023-03-04T16:42:14.823Z,40.84
2023-03-04T16:44:46.463Z,41.04
2023-03-04T16:47:16.186Z,40.99
2023-03-04T16:49:46.303Z,41.17
2023-03-04T16:52:20.017Z,42.36
2023-03-04T16:54:50.186Z,42.71
2023-03-04T16:57:20.254Z,43.29
2023-03-04T16:59:52.622Z,43.29
2023-03-04T17:02:23.485Z,43.42
2023-03-04T17:04:53.824Z,43.42
2023-03-04T17:07:23.492Z,43.72
2023-03-04T17:09:55.927Z,43.71
2023-03-04T17:12:27.835Z,44.48
2023-03-04T17:15:04.454Z,44.69
2023-03-04T17:17:34.093Z,45.07
2023-03-04T17:20:07.306Z,45.76
2023-03-04T17:22:39.110Z,45.31
2023-03-04T17:25:11.384Z,46.52
2023-03-04T17:27:41.424Z,47.14
2023-03-04T17:30:14.163Z,47.44
2023-03-04T17:32:45.288Z,47.96
2023-03-04T17:35:18.240Z,47.91
2023-03-04T17:37:49.193Z,48.29
2023-03-04T17:40:20.787Z,49.46
2023-03-04T17:42:52.145Z,50.14
2023-03-04T17:45:26.936Z,53.16
2023-03-04T17:47:57.092Z,51.79
2023-03-04T17:50:27.963Z,53.67
2023-03-04T17:52:59.990Z,53.30
2023-03-04T17:55:31.626Z,53.28
2023-03-04T17:58:01.415Z,53.76
2023-03-04T18:00:33.131Z,53.61
2023-03-04T18:03:05.263Z,53.55
2023-03-04T18:05:35.424Z,53.97
2023-03-04T18:08:07.029Z,54.19
2023-03-04T18:10:40.153Z,55.37
2023-03-04T18:13:10.202Z,56.59
2023-03-04T18:15:43.115Z,56.55
2023-03-04T18:18:13.011Z,58.10
2023-03-04T18:20:43.596Z,58.46
2023-03-04T18:23:13.418Z,59.17
2023-03-04T18:25:43.625Z,59.89
2023-03-04T18:28:13.316Z,60.61
2023-03-04T18:30:44.946Z,60.81
2023-03-04T18:33:14.706Z,60.42
2023-03-04T18:35:44.804Z,60.81
2023-03-04T18:38:16.826Z,61.16
2023-03-04T18:40:50.708Z,62.42
2023-03-04T18:43:22.135Z,61.96
2023-03-04T18:46:02.860Z,61.46
2023-03-04T18:48:35.667Z,62.39
2023-03-04T18:51:05.881Z,63.32
2023-03-04T18:53:37.130Z,63.82
2023-03-04T18:56:13.552Z,63.84
2023-03-04T18:58:45.827Z,63.58
2023-03-04T19:01:22.603Z,62.09
2023-03-04T19:03:54.748Z,62.40
2023-03-04T19:06:27.230Z,62.43
2023-03-04T19:09:01.786Z,63.72
2023-03-04T19:11:33.865Z,63.46
2023-03-04T19:14:07.490Z,65.16
2023-03-04T19:16:41.696Z,66.38
2023-03-04T19:19:11.718Z,65.93
2023-03-04T19:21:45.531Z,65.82
2023-03-04T19:24:17.108Z,67.65
2023-03-04T19:26:49.119Z,68.06
2023-03-04T19:29:20.600Z,67.99
2023-03-04T19:31:54.268Z,68.03
2023-03-04T19:34:25.415Z,68.89
2023-03-04T19:36:59.074Z,69.86
2023-03-04T19:39:31.673Z,68.81
2023-03-04T19:42:05.612Z,69.60
2023-03-04T19:44:42.647Z,69.26
2023-03-04T19:47:18.464Z,68.77
2023-03-04T19:49:51.882Z,68.41
2023-03-04T19:52:25.290Z,68.56
2023-03-04T19:54:56.266Z,68.04
2023-03-04T19:57:30.025Z,68.81
2023-03-04T20:00:03.918Z,68.48
2023-03-04T20:02:39.209Z,68.48
2023-03-04T20:05:09.503Z,68.42
2023-03-04T20:07:43.670Z,69.68
2023-03-04T20:10:17.858Z,69.03
2023-03-04T20:12:53.731Z,69.04
2023-03-04T20:15:29.068Z,68.77
2023-03-04T20:18:05.876Z,69.59
2023-03-04T20:20:41.508Z,69.02
2023-03-04T20:23:17.326Z,68.95
2023-03-04T20:25:51.945Z,67.24
2023-03-04T20:28:26.162Z,66.76
2023-03-04T20:31:13.932Z,67.25
2023-03-04T20:33:52.182Z,67.79
2023-03-04T20:36:27.315Z,70.04
2023-03-04T20:39:06.701Z,69.20
2023-03-04T20:41:51.827Z,70.14
2023-03-04T20:44:26.724Z,69.23
2023-03-04T20:47:03.669Z,69.50
2023-03-04T20:49:40.711Z,70.44
2023-03-04T20:52:11.876Z,69.86
2023-03-04T20:54:42.925Z,70.04
2023-03-04T20:57:14.754Z,70.40
2023-03-04T20:59:47.299Z,71.68
2023-03-04T21:02:20.489Z,71.12
2023-03-04T21:04:55.983Z,72.25
2023-03-04T21:07:26.867Z,72.14
2023-03-04T21:09:59.563Z,71.70
2023-03-04T21:12:30.963Z,72.64
2023-03-04T21:15:04.271Z,72.45
2023-03-04T21:17:36.299Z,73.50
2023-03-04T21:20:12.499Z,73.08
2023-03-04T21:22:43.567Z,73.54
2023-03-04T21:25:16.153Z,74.63
2023-03-04T21:27:48.045Z,74.90
2023-03-04T21:30:21.033Z,74.51
2023-03-04T21:32:55.118Z,75.04
2023-03-04T21:35:30.094Z,74.08
2023-03-04T21:38:03.390Z,73.84
2023-03-04T21:40:35.839Z,74.51
2023-03-04T21:43:07.557Z,73.39
2023-03-04T21:45:40.310Z,73.18
2023-03-04T21:48:12.349Z,72.66
2023-03-04T21:50:45.905Z,71.25
2023-03-04T21:53:22.994Z,70.43
2023-03-04T21:55:55.377Z,68.97
2023-03-04T21:58:25.972Z,69.09
2023-03-04T22:00:57.471Z,67.64
2023-03-04T22:03:27.599Z,68.00
2023-03-04T22:05:59.545Z,67.58
2023-03-04T22:08:29.499Z,67.76
2023-03-04T22:11:02.005Z,66.67
2023-03-04T22:13:34.047Z,67.06
2023-03-04T22:16:05.694Z,67.01
2023-03-04T22:18:36.400Z,67.95
2023-03-04T22:21:09.601Z,67.70
2023-03-04T22:23:39.945Z,67.46
2023-03-04T22:26:13.126Z,67.25
2023-03-04T22:28:43.901Z,67.85
2023-03-04T22:31:18.489Z,67.91
2023-03-04T22:33:48.518Z,67.39
2023-03-04T22:36:20.498Z,67.52
2023-03-04T22:38:50.429Z,67.89
2023-03-04T22:41:22.359Z,67.09
2023-03-04T22:43:53.002Z,68.09
2023-03-04T22:46:25.202Z,68.16
2023-03-04T22:48:57.242Z,67.51
2023-03-04T22:51:29.323Z,67.43
2023-03-04T22:53:59.218Z,67.23
2023-03-04T22:56:29.233Z,66.83
2023-03-04T22:58:58.839Z,67.26
2023-03-04T23:01:29.109Z,67.06
2023-03-04T23:03:59.111Z,66.92
2023-03-04T23:06:32.265Z,66.85
2023-03-04T23:09:02.581Z,67.49
2023-03-04T23:11:35.619Z,66.79
2023-03-04T23:14:07.423Z,67.43
2023-03-04T23:16:41.327Z,68.02
2023-03-04T23:19:12.542Z,67.69
2023-03-04T23:21:44.155Z,68.83
2023-03-04T23:24:14.037Z,68.63
2023-03-04T23:26:45.561Z,69.35
2023-03-04T23:29:16.650Z,68.77
2023-03-04T23:31:46.788Z,68.89
2023-03-04T23:34:16.486Z,69.18
2023-03-04T23:36:47.961Z,69.72
2023-03-04T23:39:19.756Z,70.37
2023-03-04T23:41:49.927Z,70.62
2023-03-04T23:44:19.528Z,71.04
2023-03-04T23:46:49.567Z,71.53
2023-03-04T23:49:19.338Z,71.14
2023-03-04T23:51:50.907Z,70.09
2023-03-04T23:54:20.630Z,69.98
2023-03-04T23:56:50.823Z,70.30
2023-03-04T23:59:21.192Z,70.15
